createdAt,value
2023-04-28T00:02:08.049Z,100.00
2023-04-28T00:05:08.163Z,100.00
2023-04-28T00:08:17.346Z,100.00
2023-04-28T00:11:05.526Z,99.91
2023-04-28T00:14:11.997Z,99.20
2023-04-28T00:17:08.962Z,98.21
2023-04-28T00:19:56.004Z,100.00
2023-04-28T00:22:42.882Z,100.00
2023-04-28T00:25:30.944Z,99.90
2023-04-28T00:28:30.509Z,100.00
2023-04-28T00:31:20.613Z,100.00
2023-04-28T00:34:07.366Z,100.00
2023-04-28T00:36:54.245Z,100.00
2023-04-28T00:39:47.146Z,100.00
2023-04-28T00:42:35.298Z,100.00
2023-04-28T00:45:35.290Z,100.00
2023-04-28T00:48:22.656Z,100.00
2023-04-28T00:51:13.229Z,99.81
2023-04-28T00:54:01.936Z,100.00
2023-04-28T00:56:49.055Z,100.00
2023-04-28T00:59:37.789Z,100.00
2023-04-28T01:02:25.091Z,100.00
2023-04-28T01:05:13.434Z,100.00
2023-04-28T01:07:59.993Z,100.00
2023-04-28T01:10:46.637Z,100.00
2023-04-28T01:13:48.194Z,100.00
2023-04-28T01:16:38.455Z,100.00
2023-04-28T01:19:26.179Z,100.00
2023-04-28T01:22:15.397Z,100.00
2023-04-28T01:25:05.551Z,100.00
2023-04-28T01:27:53.414Z,100.00
2023-04-28T01:30:39.823Z,100.00
2023-04-28T01:33:27.006Z,100.00
2023-04-28T01:36:13.872Z,100.00
2023-04-28T01:39:00.859Z,100.00
2023-04-28T01:41:48.753Z,100.00
2023-04-28T01:44:35.546Z,100.00
2023-04-28T01:47:22.266Z,100.00
2023-04-28T01:50:09.423Z,100.00
2023-04-28T01:52:56.193Z,100.00
2023-04-28T01:55:42.879Z,100.00
2023-04-28T01:58:31.027Z,100.00
2023-04-28T02:01:17.883Z,100.00
2023-04-28T02:04:04.716Z,100.00
2023-04-28T02:06:58.813Z,100.00
2023-04-28T02:09:47.085Z,100.00
2023-04-28T02:12:33.553Z,100.00
2023-04-28T02:15:21.902Z,100.00
2023-04-28T02:18:08.609Z,100.00
2023-04-28T02:20:59.411Z,100.00
2023-04-28T02:23:47.748Z,100.00
2023-04-28T02:26:44.619Z,100.00
2023-04-28T02:29:36.015Z,100.00
2023-04-28T02:32:27.178Z,100.00
2023-04-28T02:35:14.359Z,100.00
2023-04-28T02:38:01.202Z,100.00
2023-04-28T02:40:47.940Z,100.00
2023-04-28T02:43:35.271Z,100.00
2023-04-28T02:46:26.186Z,100.00
2023-04-28T02:49:15.609Z,100.00
2023-04-28T02:52:03.341Z,100.00
2023-04-28T02:54:55.438Z,100.00
2023-04-28T02:57:43.052Z,100.00
2023-04-28T03:00:31.477Z,100.00
2023-04-28T03:03:18.576Z,100.00
2023-04-28T03:06:07.560Z,100.00
2023-04-28T03:08:55.622Z,100.00
2023-04-28T03:11:42.820Z,100.00
2023-04-28T03:14:29.605Z,100.00
2023-04-28T03:17:16.581Z,100.00
2023-04-28T03:20:05.084Z,100.00
2023-04-28T03:22:53.421Z,100.00
2023-04-28T03:25:40.035Z,100.00
2023-04-28T03:28:27.000Z,100.00
2023-04-28T03:31:13.746Z,100.00
2023-04-28T03:34:00.691Z,100.00
2023-04-28T03:36:47.560Z,100.00
2023-04-28T03:39:44.461Z,100.00
2023-04-28T03:42:31.266Z,100.00
2023-04-28T03:45:27.877Z,100.00
2023-04-28T03:48:14.702Z,100.00
2023-04-28T03:51:01.393Z,100.00
2023-04-28T03:53:48.207Z,100.00
2023-04-28T03:56:48.131Z,99.98
2023-04-28T03:59:35.823Z,100.00
2023-04-28T04:02:22.927Z,100.00
2023-04-28T04:05:09.963Z,99.89
2023-04-28T04:07:57.035Z,100.00
2023-04-28T04:10:43.887Z,100.00
2023-04-28T04:13:32.270Z,100.00
2023-04-28T04:16:19.384Z,100.00
2023-04-28T04:19:06.599Z,100.00
2023-04-28T04:22:04.577Z,100.00
2023-04-28T04:24:51.291Z,99.92
2023-04-28T04:27:38.203Z,99.46
2023-04-28T04:30:26.475Z,99.47
2023-04-28T04:33:13.247Z,100.00
2023-04-28T04:36:00.171Z,98.89
2023-04-28T04:38:47.697Z,96.12
2023-04-28T04:41:38.528Z,92.97
2023-04-28T04:44:46.949Z,90.36
2023-04-28T04:47:49.485Z,93.33
2023-04-28T04:50:38.521Z,93.00
2023-04-28T04:53:27.282Z,92.78
2023-04-28T04:56:15.955Z,93.07
2023-04-28T04:59:05.468Z,92.93
2023-04-28T05:02:04.325Z,91.81
2023-04-28T05:05:01.754Z,90.22
2023-04-28T05:07:56.736Z,80.29
2023-04-28T05:10:43.442Z,73.87
2023-04-28T05:13:31.787Z,67.75
2023-04-28T05:16:23.624Z,56.01
2023-04-28T05:19:31.593Z,50.91
2023-04-28T05:22:20.044Z,51.46
2023-04-28T05:25:09.257Z,44.98
2023-04-28T05:27:57.899Z,44.25
2023-04-28T05:30:45.810Z,42.59
2023-04-28T05:33:33.286Z,42.70
2023-04-28T05:36:20.161Z,41.11
2023-04-28T05:39:08.353Z,39.61
2023-04-28T05:41:54.918Z,39.13
2023-04-28T05:44:43.081Z,40.26
2023-04-28T05:47:31.335Z,41.69
2023-04-28T05:50:18.149Z,45.47
2023-04-28T05:53:05.651Z,48.73
2023-04-28T05:55:53.548Z,50.92
2023-04-28T05:58:41.665Z,52.65
2023-04-28T06:01:28.747Z,57.09
2023-04-28T06:04:15.979Z,62.15
2023-04-28T06:07:06.316Z,65.71
2023-04-28T06:09:53.716Z,67.94
2023-04-28T06:12:41.843Z,67.78
2023-04-28T06:15:29.527Z,66.79
2023-04-28T06:18:16.935Z,64.46
2023-04-28T06:21:03.854Z,56.94
2023-04-28T06:23:50.498Z,54.23
2023-04-28T06:26:37.279Z,52.18
2023-04-28T06:29:25.552Z,51.10
2023-04-28T06:32:12.458Z,51.30
2023-04-28T06:34:59.034Z,49.39
2023-04-28T06:37:46.481Z,52.06
2023-04-28T06:40:34.797Z,52.34
2023-04-28T06:43:22.486Z,52.91
2023-04-28T06:46:30.239Z,51.69
2023-04-28T06:49:17.335Z,53.07
2023-04-28T06:52:04.123Z,52.21
2023-04-28T06:54:51.406Z,52.28
2023-04-28T06:57:39.069Z,53.36
2023-04-28T07:00:26.074Z,53.84
2023-04-28T07:03:14.303Z,52.62
2023-04-28T07:06:01.207Z,50.52
2023-04-28T07:08:48.099Z,51.38
2023-04-28T07:11:34.858Z,49.62
2023-04-28T07:14:21.720Z,49.43
2023-04-28T07:17:09.007Z,49.31
2023-04-28T07:19:57.213Z,48.75
2023-04-28T07:22:43.674Z,48.58
2023-04-28T07:25:30.528Z,46.29
2023-04-28T07:28:17.388Z,48.26
2023-04-28T07:31:04.175Z,46.84
2023-04-28T07:33:50.988Z,45.82
2023-04-28T07:36:39.329Z,47.72
2023-04-28T07:39:25.886Z,45.00
2023-04-28T07:42:12.951Z,46.38
2023-04-28T07:44:59.581Z,43.71
2023-04-28T07:47:46.372Z,42.55
2023-04-28T07:50:33.070Z,42.83
2023-04-28T07:53:21.340Z,44.60
2023-04-28T07:56:08.126Z,44.41
2023-04-28T07:58:54.560Z,45.80
2023-04-28T08:01:41.463Z,45.29
2023-04-28T08:04:28.571Z,44.80
2023-04-28T08:07:15.718Z,43.19
2023-04-28T08:10:03.637Z,45.44
2023-04-28T08:12:50.266Z,42.67
2023-04-28T08:15:37.149Z,43.36
2023-04-28T08:18:24.011Z,41.75
2023-04-28T08:21:11.266Z,43.97
2023-04-28T08:23:57.634Z,43.42
2023-04-28T08:26:46.282Z,46.28
2023-04-28T08:29:33.744Z,43.11
2023-04-28T08:32:20.405Z,44.92
2023-04-28T08:35:08.085Z,43.39
2023-04-28T08:37:54.804Z,43.59
2023-04-28T08:40:42.919Z,42.78
2023-04-28T08:43:31.206Z,38.96
2023-04-28T08:46:19.578Z,40.80
2023-04-28T08:49:08.971Z,40.94
2023-04-28T08:52:00.315Z,40.71
2023-04-28T08:54:50.358Z,40.11
2023-04-28T08:57:44.763Z,41.30
2023-04-28T09:00:32.802Z,40.01
2023-04-28T09:03:19.856Z,41.56
2023-04-28T09:06:06.492Z,38.60
2023-04-28T09:08:53.773Z,36.82
2023-04-28T09:11:52.197Z,37.82
2023-04-28T09:14:39.810Z,38.24
2023-04-28T09:17:27.951Z,37.41
2023-04-28T09:20:21.025Z,38.03
2023-04-28T09:23:16.060Z,39.03
2023-04-28T09:26:04.740Z,40.27
2023-04-28T09:28:51.997Z,39.14
2023-04-28T09:31:40.868Z,41.38
2023-04-28T09:34:45.442Z,39.21
2023-04-28T09:37:32.827Z,39.94
2023-04-28T09:40:20.710Z,39.02
2023-04-28T09:43:24.629Z,39.25
2023-04-28T09:46:11.246Z,39.82
2023-04-28T09:49:03.228Z,38.65
2023-04-28T09:51:51.341Z,37.24
2023-04-28T09:54:38.337Z,39.52
2023-04-28T09:57:25.396Z,39.11
2023-04-28T10:00:12.633Z,41.37
2023-04-28T10:03:00.244Z,38.88
2023-04-28T10:05:47.464Z,38.63
2023-04-28T10:08:36.101Z,37.77
2023-04-28T10:11:23.016Z,38.79
2023-04-28T10:14:10.029Z,39.63
2023-04-28T10:17:00.445Z,38.09
2023-04-28T10:19:48.204Z,37.86
2023-04-28T10:22:52.661Z,38.35
2023-04-28T10:25:43.684Z,38.27
2023-04-28T10:28:31.082Z,36.05
2023-04-28T10:31:20.868Z,37.60
2023-04-28T10:34:29.560Z,37.65
2023-04-28T10:37:19.061Z,38.17
2023-04-28T10:40:34.180Z,39.88
2023-04-28T10:43:40.288Z,38.95
2023-04-28T10:46:26.978Z,41.51
2023-04-28T10:49:13.716Z,39.57
2023-04-28T10:52:00.577Z,40.00
2023-04-28T10:55:33.712Z,39.12
2023-04-28T10:58:34.067Z,39.29
2023-04-28T11:01:30.889Z,38.78
2023-04-28T11:04:18.368Z,38.81
2023-04-28T11:07:13.910Z,39.90
2023-04-28T11:10:00.634Z,40.25
2023-04-28T11:13:20.620Z,39.35
2023-04-28T11:16:08.107Z,40.21
2023-04-28T11:19:00.198Z,41.06
2023-04-28T11:21:48.274Z,40.15
2023-04-28T11:24:35.033Z,40.73
2023-04-28T11:27:25.302Z,40.03
2023-04-28T11:30:22.341Z,39.65
2023-04-28T11:33:10.525Z,40.72
2023-04-28T11:35:59.156Z,40.35
2023-04-28T11:38:49.514Z,38.59
2023-04-28T11:41:37.350Z,41.33
2023-04-28T11:44:25.501Z,39.41
2023-04-28T11:47:11.974Z,40.17
2023-04-28T11:49:58.990Z,38.76
2023-04-28T11:52:53.804Z,39.42
2023-04-28T11:55:40.464Z,40.15
2023-04-28T11:58:27.973Z,40.42
2023-04-28T12:01:15.845Z,39.36
2023-04-28T12:04:03.477Z,38.91
2023-04-28T12:07:00.373Z,40.73
2023-04-28T12:09:49.554Z,41.48
2023-04-28T12:12:49.013Z,40.54
2023-04-28T12:15:42.186Z,39.29
2023-04-28T12:18:28.786Z,39.80
2023-04-28T12:21:22.752Z,40.58
2023-04-28T12:24:17.385Z,39.58
2023-04-28T12:27:21.884Z,39.86
2023-04-28T12:30:26.579Z,39.91
2023-04-28T12:33:25.016Z,41.08
2023-04-28T12:36:12.213Z,39.82
2023-04-28T12:38:59.282Z,39.97
2023-04-28T12:41:45.822Z,40.02
2023-04-28T12:44:38.271Z,41.35
2023-04-28T12:47:25.201Z,42.82
2023-04-28T12:50:12.118Z,39.70
2023-04-28T12:52:58.764Z,38.61
2023-04-28T12:55:45.380Z,40.32
2023-04-28T12:58:32.312Z,40.87
2023-04-28T13:01:20.509Z,41.17
2023-04-28T13:04:07.306Z,42.73
2023-04-28T13:06:54.500Z,43.48
2023-04-28T13:09:43.007Z,40.46
2023-04-28T13:12:30.118Z,38.43
2023-04-28T13:15:18.670Z,42.30
2023-04-28T13:18:08.175Z,42.45
2023-04-28T13:20:54.778Z,41.19
2023-04-28T13:23:42.833Z,40.49
2023-04-28T13:26:30.386Z,42.32
2023-04-28T13:29:18.030Z,41.09
2023-04-28T13:32:05.613Z,41.99
2023-04-28T13:34:54.132Z,43.35
2023-04-28T13:37:45.802Z,42.04
2023-04-28T13:40:33.761Z,42.55
2023-04-28T13:43:20.337Z,43.13
2023-04-28T13:46:08.658Z,42.42
2023-04-28T13:48:56.023Z,41.90
2023-04-28T13:51:45.715Z,40.34
2023-04-28T13:54:32.256Z,40.79
2023-04-28T13:57:19.184Z,39.72
2023-04-28T14:00:07.447Z,40.30
2023-04-28T14:02:54.399Z,40.25
2023-04-28T14:05:48.886Z,41.44
2023-04-28T14:08:37.702Z,44.21
2023-04-28T14:11:24.575Z,44.17
2023-04-28T14:14:11.224Z,42.27
2023-04-28T14:16:57.978Z,40.68
2023-04-28T14:19:45.574Z,41.70
2023-04-28T14:22:32.064Z,40.63
2023-04-28T14:25:20.326Z,39.64
2023-04-28T14:28:06.984Z,39.86
2023-04-28T14:30:54.769Z,41.00
2023-04-28T14:33:41.703Z,40.70
2023-04-28T14:36:28.734Z,41.87
2023-04-28T14:39:15.305Z,41.30
2023-04-28T14:42:04.001Z,39.91
2023-04-28T14:44:51.729Z,40.88
2023-04-28T14:47:40.461Z,40.44
2023-04-28T14:50:27.231Z,42.12
2023-04-28T14:53:13.920Z,41.60
2023-04-28T14:56:14.722Z,42.83
2023-04-28T14:59:06.120Z,44.20
2023-04-28T15:01:53.055Z,44.43
2023-04-28T15:04:40.061Z,42.96
2023-04-28T15:07:31.302Z,43.35
2023-04-28T15:10:18.519Z,42.88
2023-04-28T15:13:05.158Z,43.92
2023-04-28T15:15:53.249Z,44.40
2023-04-28T15:18:40.033Z,44.67
2023-04-28T15:21:28.641Z,44.99
2023-04-28T15:24:15.820Z,45.53
2023-04-28T15:27:04.131Z,45.89
2023-04-28T15:29:50.772Z,46.74
2023-04-28T15:32:38.897Z,47.70
2023-04-28T15:35:25.399Z,48.21
2023-04-28T15:38:12.225Z,48.62
2023-04-28T15:40:59.019Z,48.00
2023-04-28T15:43:46.249Z,49.21
2023-04-28T15:46:33.141Z,50.95
2023-04-28T15:49:21.637Z,50.91
2023-04-28T15:52:08.163Z,53.66
2023-04-28T15:54:55.773Z,55.65
2023-04-28T15:57:42.933Z,56.90
2023-04-28T16:00:29.385Z,58.69
2023-04-28T16:03:16.245Z,59.35
2023-04-28T16:06:04.652Z,59.40
2023-04-28T16:08:51.206Z,60.20
2023-04-28T16:11:38.673Z,61.35
2023-04-28T16:14:25.241Z,62.44
2023-04-28T16:17:12.028Z,62.42
2023-04-28T16:19:58.714Z,62.51
2023-04-28T16:22:47.374Z,62.68
2023-04-28T16:25:34.205Z,62.87
2023-04-28T16:28:21.085Z,60.89
2023-04-28T16:31:08.055Z,60.76
2023-04-28T16:33:55.355Z,61.35
2023-04-28T16:36:42.317Z,61.60
2023-04-28T16:39:30.323Z,63.51
2023-04-28T16:42:16.720Z,63.38
2023-04-28T16:45:03.721Z,63.58
2023-04-28T16:47:50.518Z,64.57
2023-04-28T16:50:39.106Z,65.01
2023-04-28T16:53:27.012Z,65.41
2023-04-28T16:56:15.246Z,65.08
2023-04-28T16:59:01.987Z,66.68
2023-04-28T17:01:49.074Z,68.25
2023-04-28T17:04:37.225Z,71.02
2023-04-28T17:07:25.610Z,72.48
2023-04-28T17:10:12.429Z,72.51
2023-04-28T17:13:00.663Z,74.22
2023-04-28T17:15:54.548Z,73.27
2023-04-28T17:18:41.459Z,73.33
2023-04-28T17:21:28.816Z,73.28
2023-04-28T17:24:15.096Z,72.22
2023-04-28T17:27:01.915Z,71.71
2023-04-28T17:29:51.971Z,71.36
2023-04-28T17:32:39.162Z,70.05
2023-04-28T17:35:25.890Z,69.83
2023-04-28T17:38:12.392Z,71.04
2023-04-28T17:40:59.219Z,71.33
2023-04-28T17:43:46.075Z,73.26
2023-04-28T17:46:34.354Z,77.25
2023-04-28T17:49:21.003Z,79.22
2023-04-28T17:52:07.748Z,79.97
2023-04-28T17:54:54.493Z,81.48
2023-04-28T17:57:41.302Z,78.67
2023-04-28T18:00:27.929Z,77.78
2023-04-28T18:03:16.354Z,76.22
2023-04-28T18:06:04.893Z,78.18
2023-04-28T18:08:51.501Z,76.35
2023-04-28T18:11:38.707Z,75.54
2023-04-28T18:14:25.893Z,76.65
2023-04-28T18:17:12.505Z,76.74
2023-04-28T18:20:00.705Z,77.95
2023-04-28T18:22:47.276Z,78.83
2023-04-28T18:25:34.014Z,78.68
2023-04-28T18:28:20.740Z,78.85
2023-04-28T18:31:07.771Z,80.15
2023-04-28T18:33:55.303Z,79.26
2023-04-28T18:36:43.175Z,78.66
2023-04-28T18:39:29.985Z,80.08
2023-04-28T18:42:16.908Z,81.12
2023-04-28T18:45:04.518Z,82.96
2023-04-28T18:47:51.259Z,80.97
2023-04-28T18:50:37.905Z,82.48
2023-04-28T18:53:26.083Z,81.22
2023-04-28T18:56:13.230Z,80.54
2023-04-28T18:58:59.807Z,80.91
2023-04-28T19:01:46.610Z,81.02
2023-04-28T19:04:33.514Z,81.09
2023-04-28T19:07:20.267Z,81.08
2023-04-28T19:10:09.613Z,81.54
2023-04-28T19:12:57.505Z,85.08
2023-04-28T19:15:44.296Z,82.80
2023-04-28T19:18:31.954Z,85.87
2023-04-28T19:21:18.872Z,85.12
2023-04-28T19:24:05.549Z,82.67
2023-04-28T19:26:54.765Z,82.17
2023-04-28T19:29:42.586Z,84.32
2023-04-28T19:32:29.980Z,84.83
2023-04-28T19:35:16.667Z,84.24
2023-04-28T19:38:03.456Z,84.33
2023-04-28T19:40:50.746Z,84.61
2023-04-28T19:43:38.835Z,85.62
2023-04-28T19:46:25.931Z,83.49
2023-04-28T19:49:12.822Z,82.99
2023-04-28T19:51:59.424Z,85.57
2023-04-28T19:54:46.219Z,86.52
2023-04-28T19:57:33.029Z,88.35
2023-04-28T20:00:21.793Z,89.01
2023-04-28T20:03:08.545Z,88.72
2023-04-28T20:05:54.966Z,89.02
2023-04-28T20:08:41.827Z,86.58
2023-04-28T20:11:28.732Z,87.03
2023-04-28T20:14:15.383Z,88.73
2023-04-28T20:17:05.228Z,92.41
2023-04-28T20:19:52.794Z,93.41
2023-04-28T20:22:40.825Z,92.85
2023-04-28T20:25:27.883Z,92.07
2023-04-28T20:28:14.531Z,92.57
2023-04-28T20:31:01.486Z,95.35
2023-04-28T20:33:49.278Z,92.38
2023-04-28T20:36:36.250Z,90.49
2023-04-28T20:39:22.791Z,91.04
2023-04-28T20:42:10.174Z,91.59
2023-04-28T20:44:56.889Z,94.22
2023-04-28T20:47:43.746Z,92.26
2023-04-28T20:50:33.429Z,92.55
2023-04-28T20:53:20.163Z,92.16
2023-04-28T20:56:07.358Z,92.64
2023-04-28T20:58:55.445Z,93.05
2023-04-28T21:01:42.255Z,93.51
2023-04-28T21:04:29.099Z,92.29
2023-04-28T21:07:17.672Z,92.40
2023-04-28T21:10:04.426Z,92.75
2023-04-28T21:12:51.021Z,92.03
2023-04-28T21:15:38.258Z,91.87
2023-04-28T21:18:24.962Z,90.48
2023-04-28T21:21:12.233Z,90.08
2023-04-28T21:24:00.433Z,90.49
2023-04-28T21:26:47.690Z,89.83
2023-04-28T21:29:35.030Z,89.56
2023-04-28T21:32:21.975Z,89.60
2023-04-28T21:35:09.572Z,89.36
2023-04-28T21:37:56.540Z,89.70
2023-04-28T21:40:49.657Z,89.82
2023-04-28T21:43:40.461Z,88.83
2023-04-28T21:46:27.824Z,89.42
2023-04-28T21:49:14.843Z,89.13
2023-04-28T21:52:01.716Z,88.62
2023-04-28T21:54:48.507Z,89.07
2023-04-28T21:57:37.056Z,90.01
2023-04-28T22:00:24.118Z,88.63
2023-04-28T22:03:11.714Z,88.50
2023-04-28T22:05:58.289Z,89.05
2023-04-28T22:08:45.019Z,88.13
2023-04-28T22:11:32.356Z,88.18
2023-04-28T22:14:38.796Z,88.40
2023-04-28T22:17:27.550Z,90.11
2023-04-28T22:20:15.090Z,89.58
2023-04-28T22:23:01.853Z,90.50
2023-04-28T22:25:48.506Z,90.89
2023-04-28T22:28:35.452Z,91.10
2023-04-28T22:31:23.473Z,91.61
2023-04-28T22:34:10.464Z,91.21
2023-04-28T22:36:57.326Z,91.36
2023-04-28T22:39:44.153Z,91.70
2023-04-28T22:42:30.830Z,92.92
2023-04-28T22:45:17.726Z,92.29
2023-04-28T22:48:06.463Z,92.23
2023-04-28T22:50:53.184Z,93.44
2023-04-28T22:53:39.902Z,92.62
2023-04-28T22:56:26.853Z,90.66
2023-04-28T22:59:13.650Z,90.90
2023-04-28T23:02:00.618Z,90.22
2023-04-28T23:04:48.443Z,90.67
2023-04-28T23:07:35.144Z,93.20
2023-04-28T23:10:21.770Z,92.12
2023-04-28T23:13:08.486Z,93.69
2023-04-28T23:15:59.102Z,93.35
2023-04-28T23:18:45.805Z,92.96
2023-04-28T23:21:33.868Z,92.31
2023-04-28T23:24:20.560Z,93.03
2023-04-28T23:27:07.488Z,93.45
2023-04-28T23:29:54.487Z,93.96
2023-04-28T23:32:42.468Z,93.84
2023-04-28T23:35:29.121Z,92.83
2023-04-28T23:38:17.066Z,92.27
2023-04-28T23:41:06.544Z,91.54
2023-04-28T23:43:53.149Z,92.52
2023-04-28T23:46:39.818Z,91.73
2023-04-28T23:49:26.604Z,91.32
2023-04-28T23:52:13.415Z,91.96
2023-04-28T23:55:01.576Z,90.90
2023-04-28T23:57:48.423Z,91.96
